sensor_id;sensor_type;location;lat;lon;timestamp;P1;durP1;ratioP1;P2;durP2;ratioP2
48665;SDS011;34452;50.796;4.994;2023-05-18T00:00:06;14.75;;;3.33;;
48665;SDS011;34452;50.796;4.994;2023-05-18T00:02:38;17.27;;;3.72;;
48665;SDS011;34452;50.796;4.994;2023-05-18T00:07:30;13.25;;;2.88;;
48665;SDS011;34452;50.796;4.994;2023-05-18T00:09:58;14.65;;;4.13;;
48665;SDS011;34452;50.796;4.994;2023-05-18T00:12:25;10.55;;;2.35;;
48665;SDS011;34452;50.796;4.994;2023-05-18T00:14:51;13.52;;;2.75;;
48665;SDS011;34452;50.796;4.994;2023-05-18T00:17:16;12.77;;;2.75;;
48665;SDS011;34452;50.796;4.994;2023-05-18T00:19:44;16.50;;;2.75;;
48665;SDS011;34452;50.796;4.994;2023-05-18T00:24:43;23.30;;;3.35;;
48665;SDS011;34452;50.796;4.994;2023-05-18T00:27:10;12.27;;;3.00;;
48665;SDS011;34452;50.796;4.994;2023-05-18T00:29:36;18.63;;;3.63;;
48665;SDS011;34452;50.796;4.994;2023-05-18T00:32:02;13.02;;;3.30;;
48665;SDS011;34452;50.796;4.994;2023-05-18T00:34:27;21.27;;;3.90;;
48665;SDS011;34452;50.796;4.994;2023-05-18T00:36:53;14.25;;;3.00;;
48665;SDS011;34452;50.796;4.994;2023-05-18T00:39:19;16.92;;;4.40;;
48665;SDS011;34452;50.796;4.994;2023-05-18T00:41:45;15.13;;;3.10;;
48665;SDS011;34452;50.796;4.994;2023-05-18T00:44:10;19.17;;;4.13;;
48665;SDS011;34452;50.796;4.994;2023-05-18T00:46:36;11.57;;;3.00;;
48665;SDS011;34452;50.796;4.994;2023-05-18T00:49:02;17.33;;;3.40;;
48665;SDS011;34452;50.796;4.994;2023-05-18T00:51:28;14.88;;;3.30;;
48665;SDS011;34452;50.796;4.994;2023-05-18T00:53:56;14.88;;;3.28;;
48665;SDS011;34452;50.796;4.994;2023-05-18T00:56:24;16.30;;;3.58;;
48665;SDS011;34452;50.796;4.994;2023-05-18T00:58:52;19.30;;;4.03;;
48665;SDS011;34452;50.796;4.994;2023-05-18T01:01:36;14.48;;;2.90;;
48665;SDS011;34452;50.796;4.994;2023-05-18T01:04:07;19.20;;;3.15;;
48665;SDS011;34452;50.796;4.994;2023-05-18T01:06:34;16.50;;;3.60;;
48665;SDS011;34452;50.796;4.994;2023-05-18T01:09:00;17.70;;;3.70;;
48665;SDS011;34452;50.796;4.994;2023-05-18T01:14:26;17.95;;;3.97;;
48665;SDS011;34452;50.796;4.994;2023-05-18T01:25:28;18.58;;;3.90;;
48665;SDS011;34452;50.796;4.994;2023-05-18T01:28:00;19.50;;;4.03;;
48665;SDS011;34452;50.796;4.994;2023-05-18T01:30:40;19.50;;;3.95;;
48665;SDS011;34452;50.796;4.994;2023-05-18T01:33:09;24.67;;;4.32;;
48665;SDS011;34452;50.796;4.994;2023-05-18T01:35:36;21.25;;;3.90;;
48665;SDS011;34452;50.796;4.994;2023-05-18T01:38:05;12.00;;;3.75;;
48665;SDS011;34452;50.796;4.994;2023-05-18T01:40:34;14.40;;;3.65;;
48665;SDS011;34452;50.796;4.994;2023-05-18T01:43:09;15.90;;;3.88;;
48665;SDS011;34452;50.796;4.994;2023-05-18T01:45:37;12.05;;;2.85;;
48665;SDS011;34452;50.796;4.994;2023-05-18T01:48:06;15.00;;;3.08;;
48665;SDS011;34452;50.796;4.994;2023-05-18T01:50:35;16.50;;;3.03;;
48665;SDS011;34452;50.796;4.994;2023-05-18T01:55:32;22.80;;;5.00;;
48665;SDS011;34452;50.796;4.994;2023-05-18T01:58:00;18.38;;;3.83;;
48665;SDS011;34452;50.796;4.994;2023-05-18T02:00:28;19.15;;;4.00;;
48665;SDS011;34452;50.796;4.994;2023-05-18T02:02:54;13.95;;;3.78;;
48665;SDS011;34452;50.796;4.994;2023-05-18T02:05:20;13.63;;;3.30;;
48665;SDS011;34452;50.796;4.994;2023-05-18T02:07:46;18.07;;;3.83;;
48665;SDS011;34452;50.796;4.994;2023-05-18T02:10:12;28.07;;;3.70;;
48665;SDS011;34452;50.796;4.994;2023-05-18T02:12:38;22.45;;;4.07;;
48665;SDS011;34452;50.796;4.994;2023-05-18T02:15:05;12.50;;;3.03;;
48665;SDS011;34452;50.796;4.994;2023-05-18T02:17:31;17.40;;;3.47;;
48665;SDS011;34452;50.796;4.994;2023-05-18T02:19:58;16.63;;;4.88;;
48665;SDS011;34452;50.796;4.994;2023-05-18T02:22:23;18.52;;;3.85;;
48665;SDS011;34452;50.796;4.994;2023-05-18T02:24:49;14.38;;;3.45;;
48665;SDS011;34452;50.796;4.994;2023-05-18T02:27:16;13.68;;;3.15;;
48665;SDS011;34452;50.796;4.994;2023-05-18T02:29:41;11.63;;;3.50;;
48665;SDS011;34452;50.796;4.994;2023-05-18T02:32:07;15.47;;;3.93;;
48665;SDS011;34452;50.796;4.994;2023-05-18T02:34:33;15.10;;;3.33;;
48665;SDS011;34452;50.796;4.994;2023-05-18T02:37:02;15.13;;;4.03;;
48665;SDS011;34452;50.796;4.994;2023-05-18T02:39:28;11.50;;;3.47;;
48665;SDS011;34452;50.796;4.994;2023-05-18T02:41:54;10.02;;;3.15;;
48665;SDS011;34452;50.796;4.994;2023-05-18T02:44:20;11.03;;;3.43;;
48665;SDS011;34452;50.796;4.994;2023-05-18T02:46:46;16.80;;;3.43;;
48665;SDS011;34452;50.796;4.994;2023-05-18T02:49:11;13.95;;;3.50;;
48665;SDS011;34452;50.796;4.994;2023-05-18T02:51:37;16.13;;;2.85;;
48665;SDS011;34452;50.796;4.994;2023-05-18T02:54:03;20.90;;;3.85;;
48665;SDS011;34452;50.796;4.994;2023-05-18T02:56:29;20.00;;;3.73;;
48665;SDS011;34452;50.796;4.994;2023-05-18T02:58:56;20.23;;;4.60;;
48665;SDS011;34452;50.796;4.994;2023-05-18T03:01:25;20.65;;;3.55;;
48665;SDS011;34452;50.796;4.994;2023-05-18T03:03:51;15.27;;;3.90;;
48665;SDS011;34452;50.796;4.994;2023-05-18T03:06:18;16.88;;;3.78;;
48665;SDS011;34452;50.796;4.994;2023-05-18T03:08:48;15.57;;;4.07;;
48665;SDS011;34452;50.796;4.994;2023-05-18T03:11:15;17.05;;;4.10;;
48665;SDS011;34452;50.796;4.994;2023-05-18T03:13:41;17.08;;;4.22;;
48665;SDS011;34452;50.796;4.994;2023-05-18T03:16:07;18.90;;;5.05;;
48665;SDS011;34452;50.796;4.994;2023-05-18T03:18:33;20.63;;;3.88;;
48665;SDS011;34452;50.796;4.994;2023-05-18T03:20:59;13.10;;;4.32;;
48665;SDS011;34452;50.796;4.994;2023-05-18T03:23:26;16.10;;;3.97;;
48665;SDS011;34452;50.796;4.994;2023-05-18T03:25:51;19.05;;;5.05;;
48665;SDS011;34452;50.796;4.994;2023-05-18T03:28:17;15.48;;;3.67;;
48665;SDS011;34452;50.796;4.994;2023-05-18T03:30:43;20.20;;;3.97;;
48665;SDS011;34452;50.796;4.994;2023-05-18T03:33:09;12.38;;;3.63;;
48665;SDS011;34452;50.796;4.994;2023-05-18T03:35:36;9.73;;;3.38;;
48665;SDS011;34452;50.796;4.994;2023-05-18T03:38:03;13.65;;;4.15;;
48665;SDS011;34452;50.796;4.994;2023-05-18T03:40:29;18.80;;;5.20;;
48665;SDS011;34452;50.796;4.994;2023-05-18T03:42:55;17.67;;;3.83;;
48665;SDS011;34452;50.796;4.994;2023-05-18T03:45:21;10.07;;;3.13;;
48665;SDS011;34452;50.796;4.994;2023-05-18T03:47:47;14.82;;;4.47;;
48665;SDS011;34452;50.796;4.994;2023-05-18T03:50:12;23.20;;;4.60;;
48665;SDS011;34452;50.796;4.994;2023-05-18T03:52:38;15.27;;;3.97;;
48665;SDS011;34452;50.796;4.994;2023-05-18T03:55:05;13.05;;;3.67;;
48665;SDS011;34452;50.796;4.994;2023-05-18T03:57:31;11.07;;;4.10;;
48665;SDS011;34452;50.796;4.994;2023-05-18T03:59:57;18.42;;;5.10;;
48665;SDS011;34452;50.796;4.994;2023-05-18T04:02:23;14.00;;;4.68;;
48665;SDS011;34452;50.796;4.994;2023-05-18T04:04:49;17.48;;;4.13;;
48665;SDS011;34452;50.796;4.994;2023-05-18T04:07:18;14.07;;;4.30;;
48665;SDS011;34452;50.796;4.994;2023-05-18T04:09:55;19.73;;;4.40;;
48665;SDS011;34452;50.796;4.994;2023-05-18T04:12:21;16.58;;;3.78;;
48665;SDS011;34452;50.796;4.994;2023-05-18T04:14:47;12.25;;;3.35;;
48665;SDS011;34452;50.796;4.994;2023-05-18T04:17:15;20.33;;;3.80;;
48665;SDS011;34452;50.796;4.994;2023-05-18T04:19:42;15.80;;;4.25;;
48665;SDS011;34452;50.796;4.994;2023-05-18T04:22:07;21.20;;;4.50;;
48665;SDS011;34452;50.796;4.994;2023-05-18T04:24:33;23.75;;;4.13;;
48665;SDS011;34452;50.796;4.994;2023-05-18T04:29:26;15.25;;;4.57;;
48665;SDS011;34452;50.796;4.994;2023-05-18T04:31:53;18.67;;;4.20;;
48665;SDS011;34452;50.796;4.994;2023-05-18T04:34:24;16.33;;;4.68;;
48665;SDS011;34452;50.796;4.994;2023-05-18T04:39:19;9.80;;;4.00;;
48665;SDS011;34452;50.796;4.994;2023-05-18T04:41:47;16.83;;;3.83;;
48665;SDS011;34452;50.796;4.994;2023-05-18T04:44:15;11.38;;;3.90;;
48665;SDS011;34452;50.796;4.994;2023-05-18T04:46:42;11.30;;;4.40;;
48665;SDS011;34452;50.796;4.994;2023-05-18T04:49:11;10.60;;;4.75;;
48665;SDS011;34452;50.796;4.994;2023-05-18T04:51:38;13.75;;;4.55;;
48665;SDS011;34452;50.796;4.994;2023-05-18T04:54:06;13.93;;;4.57;;
48665;SDS011;34452;50.796;4.994;2023-05-18T04:56:33;12.80;;;4.13;;
48665;SDS011;34452;50.796;4.994;2023-05-18T04:58:59;13.07;;;4.47;;
48665;SDS011;34452;50.796;4.994;2023-05-18T05:01:26;13.63;;;4.22;;
48665;SDS011;34452;50.796;4.994;2023-05-18T05:03:52;16.80;;;4.55;;
48665;SDS011;34452;50.796;4.994;2023-05-18T05:06:18;21.77;;;4.65;;
48665;SDS011;34452;50.796;4.994;2023-05-18T05:08:43;18.33;;;4.65;;
48665;SDS011;34452;50.796;4.994;2023-05-18T05:11:09;24.65;;;4.65;;
48665;SDS011;34452;50.796;4.994;2023-05-18T05:13:35;19.38;;;4.30;;
48665;SDS011;34452;50.796;4.994;2023-05-18T05:16:01;16.80;;;4.28;;
48665;SDS011;34452;50.796;4.994;2023-05-18T05:18:27;15.20;;;4.68;;
48665;SDS011;34452;50.796;4.994;2023-05-18T05:20:53;12.60;;;4.03;;
48665;SDS011;34452;50.796;4.994;2023-05-18T05:23:18;15.90;;;4.78;;
48665;SDS011;34452;50.796;4.994;2023-05-18T05:25:44;16.10;;;4.85;;
48665;SDS011;34452;50.796;4.994;2023-05-18T05:28:10;19.73;;;4.73;;
48665;SDS011;34452;50.796;4.994;2023-05-18T05:30:36;19.23;;;4.73;;
48665;SDS011;34452;50.796;4.994;2023-05-18T05:33:02;12.25;;;4.03;;
48665;SDS011;34452;50.796;4.994;2023-05-18T05:35:27;18.08;;;4.75;;
48665;SDS011;34452;50.796;4.994;2023-05-18T05:37:53;14.10;;;5.00;;
48665;SDS011;34452;50.796;4.994;2023-05-18T05:40:19;20.58;;;5.55;;
48665;SDS011;34452;50.796;4.994;2023-05-18T05:42:45;12.00;;;4.43;;
48665;SDS011;34452;50.796;4.994;2023-05-18T05:45:11;11.90;;;4.40;;
48665;SDS011;34452;50.796;4.994;2023-05-18T05:47:37;15.25;;;4.75;;
48665;SDS011;34452;50.796;4.994;2023-05-18T05:50:03;13.13;;;4.80;;
48665;SDS011;34452;50.796;4.994;2023-05-18T05:52:29;15.38;;;4.15;;
48665;SDS011;34452;50.796;4.994;2023-05-18T05:54:55;16.42;;;4.68;;
48665;SDS011;34452;50.796;4.994;2023-05-18T05:57:21;13.70;;;4.82;;
48665;SDS011;34452;50.796;4.994;2023-05-18T05:59:47;17.10;;;4.82;;
48665;SDS011;34452;50.796;4.994;2023-05-18T06:02:13;19.90;;;4.50;;
48665;SDS011;34452;50.796;4.994;2023-05-18T06:04:38;13.50;;;4.88;;
48665;SDS011;34452;50.796;4.994;2023-05-18T06:07:04;19.60;;;5.47;;
48665;SDS011;34452;50.796;4.994;2023-05-18T06:09:30;19.23;;;5.53;;
48665;SDS011;34452;50.796;4.994;2023-05-18T06:11:56;16.65;;;4.75;;
48665;SDS011;34452;50.796;4.994;2023-05-18T06:14:22;15.38;;;4.85;;
48665;SDS011;34452;50.796;4.994;2023-05-18T06:16:47;15.73;;;4.90;;
48665;SDS011;34452;50.796;4.994;2023-05-18T06:19:13;29.80;;;5.32;;
48665;SDS011;34452;50.796;4.994;2023-05-18T06:21:39;17.08;;;5.18;;
48665;SDS011;34452;50.796;4.994;2023-05-18T06:24:05;21.07;;;5.50;;
48665;SDS011;34452;50.796;4.994;2023-05-18T06:26:31;21.35;;;5.38;;
48665;SDS011;34452;50.796;4.994;2023-05-18T06:28:57;18.20;;;5.23;;
48665;SDS011;34452;50.796;4.994;2023-05-18T06:31:22;12.57;;;4.38;;
48665;SDS011;34452;50.796;4.994;2023-05-18T06:33:48;11.32;;;4.47;;
48665;SDS011;34452;50.796;4.994;2023-05-18T06:36:14;13.07;;;4.35;;
48665;SDS011;34452;50.796;4.994;2023-05-18T06:38:41;11.15;;;4.47;;
48665;SDS011;34452;50.796;4.994;2023-05-18T06:41:06;11.68;;;4.85;;
48665;SDS011;34452;50.796;4.994;2023-05-18T06:43:32;20.73;;;4.40;;
48665;SDS011;34452;50.796;4.994;2023-05-18T06:45:58;15.63;;;5.22;;
48665;SDS011;34452;50.796;4.994;2023-05-18T06:48:26;12.85;;;4.75;;
48665;SDS011;34452;50.796;4.994;2023-05-18T06:50:52;20.00;;;5.18;;
48665;SDS011;34452;50.796;4.994;2023-05-18T06:55:45;19.83;;;4.22;;
48665;SDS011;34452;50.796;4.994;2023-05-18T06:58:10;19.83;;;4.80;;
48665;SDS011;34452;50.796;4.994;2023-05-18T07:00:37;14.85;;;4.55;;
48665;SDS011;34452;50.796;4.994;2023-05-18T07:03:03;19.50;;;5.22;;
48665;SDS011;34452;50.796;4.994;2023-05-18T07:05:29;13.70;;;4.07;;
48665;SDS011;34452;50.796;4.994;2023-05-18T07:07:55;11.75;;;4.35;;
48665;SDS011;34452;50.796;4.994;2023-05-18T07:10:21;13.18;;;4.93;;
48665;SDS011;34452;50.796;4.994;2023-05-18T07:12:47;16.13;;;4.88;;
48665;SDS011;34452;50.796;4.994;2023-05-18T07:15:13;12.43;;;4.78;;
48665;SDS011;34452;50.796;4.994;2023-05-18T07:17:39;8.90;;;4.32;;
48665;SDS011;34452;50.796;4.994;2023-05-18T07:20:06;15.75;;;4.68;;
48665;SDS011;34452;50.796;4.994;2023-05-18T07:24:58;11.98;;;4.20;;
48665;SDS011;34452;50.796;4.994;2023-05-18T07:27:25;18.95;;;4.45;;
48665;SDS011;34452;50.796;4.994;2023-05-18T07:29:51;10.68;;;4.55;;
48665;SDS011;34452;50.796;4.994;2023-05-18T07:32:17;14.50;;;4.80;;
48665;SDS011;34452;50.796;4.994;2023-05-18T07:34:43;15.50;;;5.47;;
48665;SDS011;34452;50.796;4.994;2023-05-18T07:37:10;10.85;;;4.55;;
48665;SDS011;34452;50.796;4.994;2023-05-18T07:39:36;15.15;;;5.50;;
48665;SDS011;34452;50.796;4.994;2023-05-18T07:42:03;14.15;;;4.72;;
48665;SDS011;34452;50.796;4.994;2023-05-18T07:44:29;12.38;;;4.70;;
48665;SDS011;34452;50.796;4.994;2023-05-18T07:46:54;17.45;;;5.78;;
48665;SDS011;34452;50.796;4.994;2023-05-18T07:49:21;22.92;;;5.32;;
48665;SDS011;34452;50.796;4.994;2023-05-18T07:51:48;16.40;;;4.47;;
48665;SDS011;34452;50.796;4.994;2023-05-18T07:56:41;18.67;;;5.05;;
48665;SDS011;34452;50.796;4.994;2023-05-18T07:59:08;12.32;;;5.13;;
48665;SDS011;34452;50.796;4.994;2023-05-18T08:01:35;17.45;;;5.32;;
48665;SDS011;34452;50.796;4.994;2023-05-18T08:04:01;25.05;;;4.70;;
48665;SDS011;34452;50.796;4.994;2023-05-18T08:06:28;24.08;;;5.15;;
48665;SDS011;34452;50.796;4.994;2023-05-18T08:08:54;16.25;;;4.57;;
48665;SDS011;34452;50.796;4.994;2023-05-18T08:13:46;16.73;;;4.97;;
48665;SDS011;34452;50.796;4.994;2023-05-18T08:16:12;16.60;;;5.20;;
48665;SDS011;34452;50.796;4.994;2023-05-18T08:18:38;11.88;;;4.13;;
48665;SDS011;34452;50.796;4.994;2023-05-18T08:21:04;14.65;;;4.38;;
48665;SDS011;34452;50.796;4.994;2023-05-18T08:23:33;19.92;;;5.07;;
48665;SDS011;34452;50.796;4.994;2023-05-18T08:26:00;11.18;;;3.97;;
48665;SDS011;34452;50.796;4.994;2023-05-18T08:28:27;13.95;;;4.60;;
48665;SDS011;34452;50.796;4.994;2023-05-18T08:30:53;15.55;;;3.63;;
48665;SDS011;34452;50.796;4.994;2023-05-18T08:33:20;15.57;;;3.45;;
48665;SDS011;34452;50.796;4.994;2023-05-18T08:35:47;14.60;;;4.28;;
48665;SDS011;34452;50.796;4.994;2023-05-18T08:38:13;11.05;;;3.55;;
48665;SDS011;34452;50.796;4.994;2023-05-18T08:40:41;13.52;;;4.30;;
48665;SDS011;34452;50.796;4.994;2023-05-18T08:43:14;16.23;;;3.95;;
48665;SDS011;34452;50.796;4.994;2023-05-18T08:45:58;10.25;;;3.42;;
48665;SDS011;34452;50.796;4.994;2023-05-18T08:48:30;14.77;;;3.85;;
48665;SDS011;34452;50.796;4.994;2023-05-18T08:50:57;18.30;;;3.35;;
48665;SDS011;34452;50.796;4.994;2023-05-18T08:53:27;9.75;;;2.83;;
48665;SDS011;34452;50.796;4.994;2023-05-18T08:55:55;17.33;;;3.58;;
48665;SDS011;34452;50.796;4.994;2023-05-18T08:58:34;11.43;;;3.30;;
48665;SDS011;34452;50.796;4.994;2023-05-18T09:01:05;12.02;;;3.13;;
48665;SDS011;34452;50.796;4.994;2023-05-18T09:03:32;11.05;;;2.60;;
48665;SDS011;34452;50.796;4.994;2023-05-18T09:05:58;13.98;;;3.58;;
48665;SDS011;34452;50.796;4.994;2023-05-18T09:08:25;12.50;;;3.00;;
48665;SDS011;34452;50.796;4.994;2023-05-18T09:10:52;10.70;;;2.95;;
48665;SDS011;34452;50.796;4.994;2023-05-18T09:13:22;11.18;;;3.25;;
48665;SDS011;34452;50.796;4.994;2023-05-18T09:15:48;13.40;;;2.70;;
48665;SDS011;34452;50.796;4.994;2023-05-18T09:18:15;10.45;;;2.67;;
48665;SDS011;34452;50.796;4.994;2023-05-18T09:20:41;10.35;;;2.72;;
48665;SDS011;34452;50.796;4.994;2023-05-18T09:23:07;11.65;;;2.67;;
48665;SDS011;34452;50.796;4.994;2023-05-18T09:25:32;13.68;;;3.67;;
48665;SDS011;34452;50.796;4.994;2023-05-18T09:28:03;8.15;;;2.55;;
48665;SDS011;34452;50.796;4.994;2023-05-18T09:30:29;13.52;;;3.45;;
48665;SDS011;34452;50.796;4.994;2023-05-18T09:32:55;14.25;;;3.58;;
48665;SDS011;34452;50.796;4.994;2023-05-18T09:35:20;13.88;;;3.63;;
48665;SDS011;34452;50.796;4.994;2023-05-18T09:37:49;11.05;;;3.38;;
48665;SDS011;34452;50.796;4.994;2023-05-18T09:40:17;10.05;;;3.63;;
48665;SDS011;34452;50.796;4.994;2023-05-18T09:42:44;12.77;;;4.28;;
48665;SDS011;34452;50.796;4.994;2023-05-18T09:47:53;17.33;;;4.65;;
48665;SDS011;34452;50.796;4.994;2023-05-18T09:50:20;13.35;;;4.25;;
48665;SDS011;34452;50.796;4.994;2023-05-18T09:52:46;14.25;;;4.15;;
48665;SDS011;34452;50.796;4.994;2023-05-18T09:55:14;10.98;;;4.72;;
48665;SDS011;34452;50.796;4.994;2023-05-18T09:57:53;15.77;;;4.20;;
48665;SDS011;34452;50.796;4.994;2023-05-18T10:00:22;12.85;;;4.45;;
48665;SDS011;34452;50.796;4.994;2023-05-18T10:02:49;15.07;;;3.83;;
48665;SDS011;34452;50.796;4.994;2023-05-18T10:05:17;18.23;;;4.10;;
48665;SDS011;34452;50.796;4.994;2023-05-18T10:07:44;12.38;;;3.90;;
48665;SDS011;34452;50.796;4.994;2023-05-18T10:10:10;10.98;;;3.72;;
48665;SDS011;34452;50.796;4.994;2023-05-18T10:12:38;8.57;;;3.35;;
48665;SDS011;34452;50.796;4.994;2023-05-18T10:15:07;12.25;;;3.78;;
48665;SDS011;34452;50.796;4.994;2023-05-18T10:17:34;12.45;;;3.38;;
48665;SDS011;34452;50.796;4.994;2023-05-18T10:20:03;12.35;;;3.13;;
48665;SDS011;34452;50.796;4.994;2023-05-18T10:22:34;16.08;;;3.38;;
48665;SDS011;34452;50.796;4.994;2023-05-18T10:25:02;13.80;;;3.72;;
48665;SDS011;34452;50.796;4.994;2023-05-18T10:27:29;15.60;;;3.58;;
48665;SDS011;34452;50.796;4.994;2023-05-18T10:30:00;10.82;;;2.85;;
48665;SDS011;34452;50.796;4.994;2023-05-18T10:32:38;10.55;;;3.03;;
48665;SDS011;34452;50.796;4.994;2023-05-18T10:35:06;12.18;;;3.50;;
48665;SDS011;34452;50.796;4.994;2023-05-18T10:37:34;9.50;;;2.88;;
48665;SDS011;34452;50.796;4.994;2023-05-18T10:40:03;15.98;;;3.55;;
48665;SDS011;34452;50.796;4.994;2023-05-18T10:42:32;9.70;;;3.65;;
48665;SDS011;34452;50.796;4.994;2023-05-18T10:44:59;12.95;;;3.60;;
48665;SDS011;34452;50.796;4.994;2023-05-18T10:47:27;9.45;;;3.00;;
48665;SDS011;34452;50.796;4.994;2023-05-18T10:49:53;15.70;;;4.05;;
48665;SDS011;34452;50.796;4.994;2023-05-18T10:52:19;13.20;;;3.53;;
48665;SDS011;34452;50.796;4.994;2023-05-18T10:54:46;11.55;;;3.78;;
48665;SDS011;34452;50.796;4.994;2023-05-18T10:57:13;11.13;;;3.65;;
48665;SDS011;34452;50.796;4.994;2023-05-18T10:59:42;6.97;;;3.17;;
48665;SDS011;34452;50.796;4.994;2023-05-18T11:02:09;10.63;;;3.55;;
48665;SDS011;34452;50.796;4.994;2023-05-18T11:04:40;18.30;;;4.32;;
48665;SDS011;34452;50.796;4.994;2023-05-18T11:09:52;11.93;;;3.58;;
48665;SDS011;34452;50.796;4.994;2023-05-18T11:12:20;13.63;;;3.67;;
48665;SDS011;34452;50.796;4.994;2023-05-18T11:14:48;14.90;;;4.22;;
48665;SDS011;34452;50.796;4.994;2023-05-18T11:27:54;12.32;;;3.80;;
48665;SDS011;34452;50.796;4.994;2023-05-18T11:30:27;8.98;;;3.50;;
48665;SDS011;34452;50.796;4.994;2023-05-18T11:33:06;11.38;;;3.55;;
48665;SDS011;34452;50.796;4.994;2023-05-18T11:38:21;12.35;;;3.60;;
48665;SDS011;34452;50.796;4.994;2023-05-18T11:40:51;12.35;;;4.18;;
48665;SDS011;34452;50.796;4.994;2023-05-18T11:45:57;11.95;;;3.00;;
48665;SDS011;34452;50.796;4.994;2023-05-18T11:51:08;9.73;;;3.25;;
48665;SDS011;34452;50.796;4.994;2023-05-18T11:53:35;9.35;;;3.38;;
48665;SDS011;34452;50.796;4.994;2023-05-18T11:56:01;20.50;;;3.97;;
48665;SDS011;34452;50.796;4.994;2023-05-18T11:58:28;13.80;;;4.03;;
48665;SDS011;34452;50.796;4.994;2023-05-18T12:00:54;20.88;;;4.18;;
48665;SDS011;34452;50.796;4.994;2023-05-18T12:03:22;15.35;;;4.20;;
48665;SDS011;34452;50.796;4.994;2023-05-18T12:05:49;11.02;;;4.22;;
48665;SDS011;34452;50.796;4.994;2023-05-18T12:08:16;10.43;;;4.13;;
48665;SDS011;34452;50.796;4.994;2023-05-18T12:10:44;11.48;;;4.50;;
48665;SDS011;34452;50.796;4.994;2023-05-18T12:13:12;13.48;;;5.00;;
48665;SDS011;34452;50.796;4.994;2023-05-18T12:15:40;17.58;;;4.88;;
48665;SDS011;34452;50.796;4.994;2023-05-18T12:20:32;13.52;;;4.95;;
48665;SDS011;34452;50.796;4.994;2023-05-18T12:22:59;18.10;;;4.32;;
48665;SDS011;34452;50.796;4.994;2023-05-18T12:25:25;19.00;;;4.40;;
48665;SDS011;34452;50.796;4.994;2023-05-18T12:27:52;11.65;;;4.43;;
48665;SDS011;34452;50.796;4.994;2023-05-18T12:30:19;14.00;;;4.38;;
48665;SDS011;34452;50.796;4.994;2023-05-18T12:32:47;11.60;;;4.10;;
48665;SDS011;34452;50.796;4.994;2023-05-18T12:35:32;15.00;;;4.28;;
48665;SDS011;34452;50.796;4.994;2023-05-18T12:37:58;18.45;;;5.50;;
48665;SDS011;34452;50.796;4.994;2023-05-18T12:40:25;18.30;;;4.85;;
48665;SDS011;34452;50.796;4.994;2023-05-18T12:42:52;11.95;;;4.30;;
48665;SDS011;34452;50.796;4.994;2023-05-18T12:45:21;11.88;;;4.32;;
48665;SDS011;34452;50.796;4.994;2023-05-18T12:47:48;12.85;;;3.90;;
48665;SDS011;34452;50.796;4.994;2023-05-18T12:50:18;11.70;;;4.40;;
48665;SDS011;34452;50.796;4.994;2023-05-18T12:55:14;14.38;;;4.20;;
48665;SDS011;34452;50.796;4.994;2023-05-18T12:58:00;16.05;;;4.80;;
48665;SDS011;34452;50.796;4.994;2023-05-18T13:00:30;15.65;;;4.60;;
48665;SDS011;34452;50.796;4.994;2023-05-18T13:05:42;14.82;;;4.30;;
48665;SDS011;34452;50.796;4.994;2023-05-18T13:10:59;18.83;;;4.50;;
48665;SDS011;34452;50.796;4.994;2023-05-18T13:16:26;12.82;;;4.50;;
48665;SDS011;34452;50.796;4.994;2023-05-18T13:21:40;16.92;;;5.30;;
48665;SDS011;34452;50.796;4.994;2023-05-18T13:24:06;16.05;;;4.70;;
48665;SDS011;34452;50.796;4.994;2023-05-18T13:26:32;13.93;;;4.25;;
48665;SDS011;34452;50.796;4.994;2023-05-18T13:28:57;9.52;;;4.53;;
48665;SDS011;34452;50.796;4.994;2023-05-18T13:31:24;13.07;;;4.30;;
48665;SDS011;34452;50.796;4.994;2023-05-18T13:33:50;15.45;;;4.28;;
48665;SDS011;34452;50.796;4.994;2023-05-18T13:36:16;19.45;;;5.03;;
48665;SDS011;34452;50.796;4.994;2023-05-18T13:41:09;9.95;;;4.05;;
48665;SDS011;34452;50.796;4.994;2023-05-18T13:43:36;19.83;;;5.18;;
48665;SDS011;34452;50.796;4.994;2023-05-18T13:46:02;16.15;;;4.28;;
48665;SDS011;34452;50.796;4.994;2023-05-18T13:48:28;17.63;;;4.80;;
48665;SDS011;34452;50.796;4.994;2023-05-18T13:53:20;14.95;;;4.63;;
48665;SDS011;34452;50.796;4.994;2023-05-18T13:58:12;11.40;;;3.90;;
48665;SDS011;34452;50.796;4.994;2023-05-18T14:00:38;21.10;;;3.85;;
48665;SDS011;34452;50.796;4.994;2023-05-18T14:03:04;8.70;;;3.60;;
48665;SDS011;34452;50.796;4.994;2023-05-18T14:05:30;10.73;;;3.80;;
48665;SDS011;34452;50.796;4.994;2023-05-18T14:07:56;18.17;;;4.13;;
48665;SDS011;34452;50.796;4.994;2023-05-18T14:10:21;12.90;;;4.03;;
48665;SDS011;34452;50.796;4.994;2023-05-18T14:12:47;11.02;;;3.67;;
48665;SDS011;34452;50.796;4.994;2023-05-18T14:15:13;12.05;;;3.67;;
48665;SDS011;34452;50.796;4.994;2023-05-18T14:17:39;13.43;;;3.95;;
48665;SDS011;34452;50.796;4.994;2023-05-18T14:20:06;12.88;;;3.33;;
48665;SDS011;34452;50.796;4.994;2023-05-18T14:24:58;14.02;;;3.65;;
48665;SDS011;34452;50.796;4.994;2023-05-18T14:27:25;15.60;;;3.78;;
48665;SDS011;34452;50.796;4.994;2023-05-18T14:29:51;12.05;;;4.03;;
48665;SDS011;34452;50.796;4.994;2023-05-18T14:32:17;15.07;;;4.07;;
48665;SDS011;34452;50.796;4.994;2023-05-18T14:34:45;15.90;;;3.83;;
48665;SDS011;34452;50.796;4.994;2023-05-18T14:39:36;9.38;;;3.20;;
48665;SDS011;34452;50.796;4.994;2023-05-18T14:42:03;15.50;;;3.35;;
48665;SDS011;34452;50.796;4.994;2023-05-18T14:44:30;20.30;;;3.20;;
48665;SDS011;34452;50.796;4.994;2023-05-18T14:46:56;12.82;;;3.38;;
48665;SDS011;34452;50.796;4.994;2023-05-18T14:49:21;13.57;;;3.40;;
48665;SDS011;34452;50.796;4.994;2023-05-18T14:51:47;6.32;;;2.92;;
48665;SDS011;34452;50.796;4.994;2023-05-18T14:54:13;8.98;;;3.08;;
48665;SDS011;34452;50.796;4.994;2023-05-18T14:56:39;14.50;;;3.65;;
48665;SDS011;34452;50.796;4.994;2023-05-18T14:59:05;8.52;;;3.13;;
48665;SDS011;34452;50.796;4.994;2023-05-18T15:01:31;8.48;;;2.67;;
48665;SDS011;34452;50.796;4.994;2023-05-18T15:03:56;15.98;;;3.25;;
48665;SDS011;34452;50.796;4.994;2023-05-18T15:06:23;11.32;;;3.30;;
48665;SDS011;34452;50.796;4.994;2023-05-18T15:08:50;12.52;;;3.42;;
48665;SDS011;34452;50.796;4.994;2023-05-18T15:11:15;11.32;;;3.53;;
48665;SDS011;34452;50.796;4.994;2023-05-18T15:13:41;12.80;;;3.35;;
48665;SDS011;34452;50.796;4.994;2023-05-18T15:16:08;10.73;;;3.28;;
48665;SDS011;34452;50.796;4.994;2023-05-18T15:18:34;9.82;;;3.45;;
48665;SDS011;34452;50.796;4.994;2023-05-18T15:21:00;12.32;;;3.30;;
48665;SDS011;34452;50.796;4.994;2023-05-18T15:23:26;14.93;;;3.35;;
48665;SDS011;34452;50.796;4.994;2023-05-18T15:25:51;18.52;;;4.03;;
48665;SDS011;34452;50.796;4.994;2023-05-18T15:28:17;11.68;;;3.05;;
48665;SDS011;34452;50.796;4.994;2023-05-18T15:30:43;11.32;;;2.90;;
48665;SDS011;34452;50.796;4.994;2023-05-18T15:33:09;13.48;;;3.03;;
48665;SDS011;34452;50.796;4.994;2023-05-18T15:35:34;11.75;;;3.35;;
48665;SDS011;34452;50.796;4.994;2023-05-18T15:38:02;8.70;;;3.22;;
48665;SDS011;34452;50.796;4.994;2023-05-18T15:40:28;11.70;;;3.25;;
48665;SDS011;34452;50.796;4.994;2023-05-18T15:42:54;11.18;;;3.28;;
48665;SDS011;34452;50.796;4.994;2023-05-18T15:45:19;9.95;;;2.83;;
48665;SDS011;34452;50.796;4.994;2023-05-18T15:47:45;12.45;;;2.88;;
48665;SDS011;34452;50.796;4.994;2023-05-18T15:50:11;9.00;;;2.97;;
48665;SDS011;34452;50.796;4.994;2023-05-18T15:52:37;13.60;;;3.33;;
48665;SDS011;34452;50.796;4.994;2023-05-18T15:55:03;19.45;;;3.60;;
48665;SDS011;34452;50.796;4.994;2023-05-18T15:57:29;9.18;;;3.10;;
48665;SDS011;34452;50.796;4.994;2023-05-18T15:59:57;9.88;;;3.10;;